createdAt,value
2024-04-18T00:00:35.714Z,2.10
2024-04-18T00:02:07.701Z,1.88
2024-04-18T00:03:39.713Z,2.13
2024-04-18T00:05:14.459Z,3.03
2024-04-18T00:06:49.144Z,1.92
2024-04-18T00:08:21.126Z,2.10
2024-04-18T00:09:55.636Z,2.38
2024-04-18T00:11:27.811Z,2.47
2024-04-18T00:13:02.400Z,2.50
2024-04-18T00:14:34.365Z,3.60
2024-04-18T00:16:06.836Z,2.30
2024-04-18T00:17:41.496Z,2.53
2024-04-18T00:19:13.544Z,2.50
2024-04-18T00:20:48.263Z,2.53
2024-04-18T00:22:22.906Z,3.17
2024-04-18T00:23:54.983Z,3.50
2024-04-18T00:25:29.483Z,3.58
2024-04-18T00:27:01.421Z,3.35
2024-04-18T00:28:35.948Z,3.80
2024-04-18T00:30:08.501Z,4.10
2024-04-18T00:31:40.443Z,3.88
2024-04-18T00:33:15.539Z,4.13
2024-04-18T00:34:47.623Z,4.43
2024-04-18T00:36:19.617Z,4.32
2024-04-18T00:37:56.721Z,4.57
2024-04-18T00:39:28.699Z,5.57
2024-04-18T00:41:00.684Z,5.25
2024-04-18T00:42:35.233Z,6.90
2024-04-18T00:44:08.021Z,5.75
2024-04-18T00:45:42.731Z,5.80
2024-04-18T00:47:16.869Z,6.47
2024-04-18T00:48:49.022Z,5.75
2024-04-18T00:50:24.377Z,6.25
2024-04-18T00:51:57.667Z,6.97
2024-04-18T00:53:35.227Z,6.38
2024-04-18T00:55:07.808Z,6.65
2024-04-18T00:56:44.442Z,6.85
2024-04-18T00:58:17.391Z,7.18
2024-04-18T00:59:49.911Z,6.70
2024-04-18T01:01:26.835Z,6.60
2024-04-18T01:02:58.880Z,6.95
2024-04-18T01:04:34.418Z,7.82
2024-04-18T01:06:07.867Z,6.68
2024-04-18T01:07:39.813Z,7.32
2024-04-18T01:09:17.031Z,6.95
2024-04-18T01:10:49.181Z,7.63
2024-04-18T01:12:23.926Z,8.45
2024-04-18T01:13:55.834Z,7.72
2024-04-18T01:15:28.809Z,7.20
2024-04-18T01:17:05.154Z,7.47
2024-04-18T01:18:37.222Z,6.95
2024-04-18T01:20:09.419Z,7.45
2024-04-18T01:21:44.003Z,9.13
2024-04-18T01:23:15.969Z,8.35
2024-04-18T01:24:50.565Z,7.63
2024-04-18T01:26:27.672Z,6.93
2024-04-18T01:27:59.609Z,7.95
2024-04-18T01:29:31.581Z,7.78
2024-04-18T01:31:06.175Z,7.50
2024-04-18T01:32:38.594Z,8.18
2024-04-18T01:34:10.756Z,8.73
2024-04-18T01:35:45.640Z,9.38
2024-04-18T01:37:17.612Z,7.32
2024-04-18T01:38:49.523Z,7.80
2024-04-18T01:40:24.093Z,7.93
2024-04-18T01:41:58.679Z,8.05
2024-04-18T01:43:30.724Z,7.97
2024-04-18T01:45:05.237Z,7.30
2024-04-18T01:46:37.179Z,7.35
2024-04-18T01:48:11.919Z,8.40
2024-04-18T01:49:45.048Z,7.68
2024-04-18T01:51:17.034Z,7.70
2024-04-18T01:52:51.620Z,7.43
2024-04-18T01:54:23.540Z,7.90
2024-04-18T01:55:55.455Z,9.20
2024-04-18T01:57:32.727Z,7.45
2024-04-18T01:59:05.595Z,8.20
2024-04-18T02:00:44.179Z,8.02
2024-04-18T02:02:18.752Z,7.22
2024-04-18T02:03:50.945Z,6.68
2024-04-18T02:05:23.032Z,7.53
2024-04-18T02:06:57.516Z,7.28
2024-04-18T02:08:29.446Z,8.10
2024-04-18T02:10:01.401Z,7.13
2024-04-18T02:11:35.942Z,8.25
2024-04-18T02:13:10.526Z,7.45
2024-04-18T02:14:42.592Z,8.13
2024-04-18T02:16:17.114Z,6.80
2024-04-18T02:17:49.156Z,7.28
2024-04-18T02:19:21.232Z,6.80
2024-04-18T02:20:55.761Z,7.53
2024-04-18T02:22:27.870Z,8.48
2024-04-18T02:24:00.002Z,7.75
2024-04-18T02:25:34.519Z,7.00
2024-04-18T02:27:06.448Z,8.18
2024-04-18T02:28:44.318Z,7.57
2024-04-18T02:30:16.327Z,7.45
2024-04-18T02:31:48.266Z,7.05
2024-04-18T02:33:22.866Z,7.15
2024-04-18T02:34:54.831Z,7.10
2024-04-18T02:36:29.470Z,7.15
2024-04-18T02:38:01.423Z,7.15
2024-04-18T02:39:36.758Z,6.28
2024-04-18T02:41:12.546Z,9.23
2024-04-18T02:42:44.616Z,6.97
2024-04-18T02:44:21.820Z,7.55
2024-04-18T02:45:54.214Z,7.40
2024-04-18T02:47:26.286Z,7.20
2024-04-18T02:49:00.871Z,7.10
2024-04-18T02:50:32.935Z,6.95
2024-04-18T02:52:05.537Z,7.40
2024-04-18T02:53:40.054Z,7.70
2024-04-18T02:55:11.970Z,7.63
2024-04-18T02:56:43.916Z,7.43
2024-04-18T02:58:18.448Z,7.63
2024-04-18T02:59:53.127Z,7.18
2024-04-18T03:01:25.389Z,8.55
2024-04-18T03:03:00.037Z,6.93
2024-04-18T03:04:33.052Z,9.52
2024-04-18T03:06:05.628Z,8.15
2024-04-18T03:07:40.084Z,7.88
2024-04-18T03:09:13.080Z,7.80
2024-04-18T03:10:49.548Z,8.00
2024-04-18T03:12:24.176Z,8.07
2024-04-18T03:13:56.106Z,7.75
2024-04-18T03:15:30.647Z,7.53
2024-04-18T03:17:05.205Z,9.60
2024-04-18T03:18:37.261Z,9.40
2024-04-18T03:20:09.239Z,9.88
2024-04-18T03:21:43.944Z,9.68
2024-04-18T03:23:15.883Z,9.27
2024-04-18T03:24:50.480Z,8.73
2024-04-18T03:26:22.460Z,8.68
2024-04-18T03:27:54.376Z,9.15
2024-04-18T03:29:28.886Z,9.15
2024-04-18T03:31:06.255Z,10.43
2024-04-18T03:32:42.063Z,10.88
2024-04-18T03:34:14.163Z,8.80
2024-04-18T03:35:46.249Z,11.43
2024-04-18T03:37:21.659Z,10.15
2024-04-18T03:38:53.885Z,9.38
2024-04-18T03:40:28.464Z,9.93
2024-04-18T03:42:00.488Z,9.18
2024-04-18T03:43:35.299Z,10.90
2024-04-18T03:45:07.534Z,10.10
2024-04-18T03:46:44.817Z,9.00
2024-04-18T03:48:16.892Z,10.18
2024-04-18T03:49:51.479Z,9.52
2024-04-18T03:51:27.775Z,9.77
2024-04-18T03:52:59.801Z,10.95
2024-04-18T03:54:46.809Z,9.10
2024-04-18T03:56:26.461Z,10.75
2024-04-18T03:57:58.404Z,10.07
2024-04-18T03:59:32.925Z,12.35
2024-04-18T04:01:05.365Z,9.60
2024-04-18T04:02:40.548Z,9.60
2024-04-18T04:04:15.137Z,11.07
2024-04-18T04:05:47.039Z,9.68
2024-04-18T04:07:19.033Z,11.35
2024-04-18T04:08:53.484Z,9.73
2024-04-18T04:10:25.733Z,10.00
2024-04-18T04:11:57.634Z,11.88
2024-04-18T04:13:32.146Z,11.85
2024-04-18T04:15:04.208Z,11.98
2024-04-18T04:16:38.883Z,10.98
2024-04-18T04:18:13.394Z,12.18
2024-04-18T04:19:45.354Z,10.95
2024-04-18T04:21:20.564Z,11.20
2024-04-18T04:22:52.861Z,10.07
2024-04-18T04:24:27.537Z,11.75
2024-04-18T04:25:59.527Z,10.60
2024-04-18T04:27:31.481Z,10.93
2024-04-18T04:29:06.010Z,10.02
2024-04-18T04:30:37.995Z,11.20
2024-04-18T04:32:22.732Z,11.52
2024-04-18T04:33:57.356Z,12.38
2024-04-18T04:35:31.877Z,11.73
2024-04-18T04:37:04.057Z,12.65
2024-04-18T04:38:36.061Z,11.35
2024-04-18T04:40:11.382Z,12.15
2024-04-18T04:41:43.349Z,11.75
2024-04-18T04:43:18.162Z,11.25
2024-04-18T04:44:50.161Z,11.32
2024-04-18T04:46:24.631Z,14.10
2024-04-18T04:47:56.587Z,11.77
2024-04-18T04:49:31.244Z,12.30
2024-04-18T04:51:05.924Z,10.68
2024-04-18T04:52:37.855Z,15.07
2024-04-18T04:54:12.342Z,11.63
2024-04-18T04:55:44.505Z,13.00
2024-04-18T04:57:16.554Z,10.77
2024-04-18T04:58:51.104Z,13.23
2024-04-18T05:00:23.063Z,12.98
2024-04-18T05:01:55.060Z,17.25
2024-04-18T05:03:29.632Z,13.40
2024-04-18T05:05:04.551Z,14.55
2024-04-18T05:06:39.071Z,14.82
2024-04-18T05:08:11.039Z,13.35
2024-04-18T05:09:43.138Z,14.20
2024-04-18T05:11:17.921Z,14.57
2024-04-18T05:12:50.476Z,12.73
2024-04-18T05:14:26.365Z,14.32
2024-04-18T05:15:59.330Z,13.38
2024-04-18T05:17:31.541Z,13.45
2024-04-18T05:19:06.094Z,12.93
2024-04-18T05:20:40.637Z,16.13
2024-04-18T05:22:12.575Z,14.77
2024-04-18T05:23:47.203Z,13.85
2024-04-18T05:25:19.232Z,13.52
2024-04-18T05:26:51.134Z,12.65
2024-04-18T05:28:31.759Z,12.52
2024-04-18T05:30:22.657Z,12.90
2024-04-18T05:31:54.864Z,13.52
2024-04-18T05:33:29.426Z,12.98
2024-04-18T05:35:01.670Z,12.50
2024-04-18T05:36:39.739Z,11.73
2024-04-18T05:38:11.630Z,12.45
2024-04-18T05:39:46.196Z,13.48
2024-04-18T05:41:18.192Z,13.55
2024-04-18T05:42:52.731Z,14.45
2024-04-18T05:44:25.546Z,14.93
2024-04-18T05:46:00.128Z,17.52
2024-04-18T05:47:32.195Z,13.43
2024-04-18T05:49:06.695Z,15.20
2024-04-18T05:50:39.923Z,14.60
2024-04-18T05:52:17.242Z,14.45
2024-04-18T05:53:49.194Z,13.32
2024-04-18T05:55:23.947Z,14.85
2024-04-18T05:56:55.899Z,14.18
2024-04-18T05:58:30.412Z,13.82
2024-04-18T06:00:02.427Z,15.35
2024-04-18T06:01:37.047Z,13.40
2024-04-18T06:03:09.111Z,13.65
2024-04-18T06:04:43.742Z,13.18
2024-04-18T06:06:15.846Z,14.55
2024-04-18T06:07:52.984Z,13.80
2024-04-18T06:09:24.915Z,14.95
2024-04-18T06:10:59.460Z,15.82
2024-04-18T06:12:31.497Z,14.98
2024-04-18T06:14:06.526Z,14.07
2024-04-18T06:15:41.752Z,15.45
2024-04-18T06:17:16.335Z,15.50
2024-04-18T06:18:48.254Z,13.93
2024-04-18T06:20:23.261Z,14.23
2024-04-18T06:21:55.272Z,13.52
2024-04-18T06:23:32.431Z,12.48
2024-04-18T06:25:04.964Z,14.20
2024-04-18T06:26:39.591Z,14.73
2024-04-18T06:28:15.785Z,13.98
2024-04-18T06:29:48.389Z,13.80
2024-04-18T06:31:23.821Z,13.35
2024-04-18T06:32:55.950Z,14.15
2024-04-18T06:34:30.580Z,12.45
2024-04-18T06:36:03.232Z,14.80
2024-04-18T06:37:37.724Z,12.85
2024-04-18T06:39:14.809Z,13.32
2024-04-18T06:40:46.771Z,14.15
2024-04-18T06:42:21.536Z,13.98
2024-04-18T06:43:53.512Z,15.18
2024-04-18T06:45:28.061Z,15.70
2024-04-18T06:47:02.376Z,14.93
2024-04-18T06:48:37.558Z,12.75
2024-04-18T06:50:09.631Z,14.02
2024-04-18T06:51:44.122Z,12.57
2024-04-18T06:53:16.093Z,14.05
2024-04-18T06:54:53.260Z,14.23
2024-04-18T06:56:25.229Z,13.52
2024-04-18T06:57:59.870Z,14.07
2024-04-18T06:59:34.542Z,13.90
2024-04-18T07:01:06.689Z,12.98
2024-04-18T07:02:41.297Z,14.80
2024-04-18T07:04:13.499Z,16.23
2024-04-18T07:05:48.131Z,14.50
2024-04-18T07:07:20.035Z,13.48
2024-04-18T07:08:54.595Z,14.55
2024-04-18T07:10:29.128Z,13.68
2024-04-18T07:12:03.669Z,14.40
2024-04-18T07:13:35.644Z,13.82
2024-04-18T07:15:10.553Z,14.63
2024-04-18T07:16:42.467Z,13.60
2024-04-18T07:18:17.174Z,12.00
2024-04-18T07:19:51.748Z,13.30
2024-04-18T07:21:23.823Z,12.60
2024-04-18T07:22:58.315Z,15.40
2024-04-18T07:24:31.881Z,13.93
2024-04-18T07:26:09.100Z,13.43
2024-04-18T07:27:41.058Z,14.18
2024-04-18T07:29:15.571Z,10.45
2024-04-18T07:30:47.886Z,13.43
2024-04-18T07:32:22.428Z,10.95
2024-04-18T07:33:54.504Z,11.47
2024-04-18T07:35:29.152Z,11.37
2024-04-18T07:37:01.258Z,12.27
2024-04-18T07:38:35.854Z,10.13
2024-04-18T07:40:13.021Z,14.03
2024-04-18T07:41:50.258Z,10.90
2024-04-18T07:43:22.366Z,9.03
2024-04-18T07:44:56.912Z,10.53
2024-04-18T07:46:33.444Z,10.43
2024-04-18T07:48:08.987Z,11.93
2024-04-18T07:49:44.166Z,10.37
2024-04-18T07:51:19.995Z,12.50
2024-04-18T07:52:57.178Z,11.03
2024-04-18T07:54:38.678Z,11.50
2024-04-18T07:56:11.559Z,12.30
2024-04-18T07:57:49.573Z,11.53
2024-04-18T07:59:22.553Z,10.73
2024-04-18T08:00:58.711Z,10.70
2024-04-18T08:02:32.858Z,10.13
2024-04-18T08:04:27.471Z,9.23
2024-04-18T08:06:05.358Z,9.10
2024-04-18T08:07:41.860Z,10.23
2024-04-18T08:09:19.778Z,8.13
2024-04-18T08:11:16.042Z,8.47
2024-04-18T08:12:56.020Z,8.50
2024-04-18T08:14:33.296Z,8.50
2024-04-18T08:16:10.969Z,9.03
2024-04-18T08:17:42.999Z,8.03
2024-04-18T08:19:17.569Z,8.17
2024-04-18T08:20:49.829Z,9.03
2024-04-18T08:22:26.089Z,9.73
2024-04-18T08:23:58.857Z,9.17
2024-04-18T08:25:33.450Z,9.27
2024-04-18T08:27:05.815Z,8.57
2024-04-18T08:28:42.902Z,10.00
2024-04-18T08:30:15.067Z,8.73
2024-04-18T08:31:49.596Z,8.60
2024-04-18T08:33:21.577Z,9.17
2024-04-18T08:34:56.172Z,11.07
2024-04-18T08:36:28.219Z,8.93
2024-04-18T08:38:02.852Z,9.27
2024-04-18T08:39:34.886Z,9.23
2024-04-18T08:41:14.027Z,9.30
2024-04-18T08:42:48.486Z,10.80
2024-04-18T08:44:25.746Z,11.07
2024-04-18T08:45:58.068Z,11.50
2024-04-18T08:47:35.617Z,9.27
2024-04-18T08:49:10.400Z,8.63
2024-04-18T08:50:46.608Z,8.63
2024-04-18T08:52:19.689Z,8.80
2024-04-18T08:53:54.344Z,11.00
2024-04-18T08:55:26.366Z,9.53
2024-04-18T08:57:04.108Z,11.00
2024-04-18T08:58:36.170Z,9.20
2024-04-18T09:00:15.827Z,8.53
2024-04-18T09:01:48.022Z,7.90
2024-04-18T09:03:22.588Z,10.73
2024-04-18T09:04:54.661Z,11.27
2024-04-18T09:06:29.426Z,9.20
2024-04-18T09:08:01.498Z,8.83
2024-04-18T09:09:36.144Z,8.63
2024-04-18T09:11:08.751Z,8.93
2024-04-18T09:12:43.465Z,9.53
2024-04-18T09:14:15.451Z,9.67
2024-04-18T09:15:52.696Z,9.93
2024-04-18T09:17:27.372Z,8.90
2024-04-18T09:19:02.270Z,10.20
2024-04-18T09:20:36.099Z,9.43
2024-04-18T09:22:10.662Z,9.60
2024-04-18T09:23:43.371Z,9.83
2024-04-18T09:25:18.647Z,8.60
2024-04-18T09:26:51.356Z,8.30
2024-04-18T09:28:25.882Z,9.50
2024-04-18T09:29:57.790Z,9.23
2024-04-18T09:31:42.378Z,8.07
2024-04-18T09:33:15.960Z,9.10
2024-04-18T09:34:53.654Z,8.93
2024-04-18T09:36:25.598Z,9.57
2024-04-18T09:38:08.265Z,8.07
2024-04-18T09:39:45.401Z,7.70
2024-04-18T09:41:23.691Z,7.90
2024-04-18T09:43:04.831Z,7.37
2024-04-18T09:44:43.016Z,7.93
2024-04-18T09:46:18.537Z,7.50
2024-04-18T09:47:53.623Z,7.93
2024-04-18T09:49:29.316Z,8.10
2024-04-18T09:51:03.220Z,7.70
2024-04-18T09:52:39.065Z,9.00
2024-04-18T09:54:12.407Z,8.87
2024-04-18T09:55:48.673Z,8.80
2024-04-18T09:57:22.764Z,8.03
2024-04-18T09:58:58.655Z,9.10
2024-04-18T10:00:32.023Z,7.57
2024-04-18T10:02:09.580Z,7.87
2024-04-18T10:03:48.499Z,7.87
2024-04-18T10:05:21.215Z,7.13
2024-04-18T10:06:58.864Z,7.83
2024-04-18T10:08:36.636Z,8.17
2024-04-18T10:10:13.054Z,8.13
2024-04-18T10:11:46.040Z,8.23
2024-04-18T10:13:26.598Z,6.53
2024-04-18T10:14:58.868Z,7.63
2024-04-18T10:16:33.952Z,7.23
2024-04-18T10:18:13.489Z,6.97
2024-04-18T10:19:50.714Z,9.40
2024-04-18T10:21:33.543Z,6.40
2024-04-18T10:23:18.089Z,6.03
2024-04-18T10:24:51.259Z,6.77
2024-04-18T10:26:26.291Z,6.43
2024-04-18T10:27:58.227Z,6.17
2024-04-18T10:29:34.319Z,5.93
2024-04-18T10:31:08.640Z,6.67
2024-04-18T10:32:46.009Z,5.77
2024-04-18T10:34:24.859Z,5.80
2024-04-18T10:35:59.556Z,5.90
2024-04-18T10:37:34.143Z,6.47
2024-04-18T10:39:06.140Z,5.17
2024-04-18T10:41:00.350Z,6.87
2024-04-18T10:42:38.112Z,6.40
2024-04-18T10:44:12.834Z,6.00
2024-04-18T10:45:45.131Z,5.67
2024-04-18T10:47:23.664Z,6.03
2024-04-18T10:48:56.005Z,6.00
2024-04-18T10:50:33.882Z,7.67
2024-04-18T10:52:12.290Z,6.00
2024-04-18T10:53:45.160Z,6.03
2024-04-18T10:55:19.831Z,7.33
2024-04-18T10:56:53.782Z,5.83
2024-04-18T10:58:28.748Z,7.63
2024-04-18T11:00:00.935Z,6.73
2024-04-18T11:01:40.113Z,5.90
2024-04-18T11:03:12.492Z,6.07
2024-04-18T11:04:46.987Z,6.03
2024-04-18T11:06:18.910Z,5.77
2024-04-18T11:07:56.155Z,5.60
2024-04-18T11:09:28.374Z,5.63
2024-04-18T11:11:03.203Z,7.37
2024-04-18T11:12:35.424Z,6.67
2024-04-18T11:14:12.061Z,5.80
2024-04-18T11:15:45.485Z,7.03
2024-04-18T11:17:20.060Z,5.50
2024-04-18T11:18:52.387Z,6.07
2024-04-18T11:20:28.506Z,5.23
2024-04-18T11:22:02.917Z,6.33
2024-04-18T11:23:47.044Z,5.20
2024-04-18T11:25:22.849Z,5.30
2024-04-18T11:26:57.475Z,5.83
2024-04-18T11:28:29.795Z,5.67
2024-04-18T11:30:05.849Z,5.00
2024-04-18T11:31:37.861Z,5.20
2024-04-18T11:33:13.740Z,5.30
2024-04-18T11:34:50.325Z,5.27
2024-04-18T11:36:29.455Z,8.10
2024-04-18T11:38:03.483Z,5.90
2024-04-18T11:39:42.446Z,7.17
2024-04-18T11:41:14.385Z,6.17
2024-04-18T11:42:48.938Z,6.93
2024-04-18T11:44:23.464Z,7.67
2024-04-18T11:45:55.671Z,9.07
2024-04-18T11:47:30.360Z,7.53
2024-04-18T11:49:02.541Z,6.20
2024-04-18T11:50:38.209Z,5.63
2024-04-18T11:52:10.347Z,5.77
2024-04-18T11:53:44.842Z,7.43
2024-04-18T11:55:19.415Z,6.67
2024-04-18T11:56:55.062Z,7.13
2024-04-18T11:58:27.357Z,7.17
2024-04-18T12:00:01.955Z,6.80
2024-04-18T12:01:33.938Z,7.50
2024-04-18T12:03:08.657Z,6.80
2024-04-18T12:04:42.270Z,6.70
2024-04-18T12:06:17.199Z,6.67
2024-04-18T12:07:49.193Z,7.20
2024-04-18T12:09:23.734Z,7.90
2024-04-18T12:10:58.251Z,6.63
2024-04-18T12:12:34.164Z,6.97
2024-04-18T12:14:06.863Z,6.77
2024-04-18T12:15:42.088Z,8.20
2024-04-18T12:17:14.058Z,6.80
2024-04-18T12:18:48.551Z,6.23
2024-04-18T12:20:20.890Z,7.10
2024-04-18T12:21:55.428Z,7.80
2024-04-18T12:23:27.603Z,7.33
2024-04-18T12:25:04.816Z,6.53
2024-04-18T12:26:41.907Z,7.00
2024-04-18T12:28:16.439Z,6.87
2024-04-18T12:29:49.079Z,6.70
2024-04-18T12:31:23.682Z,7.10
2024-04-18T12:32:55.679Z,7.63
2024-04-18T12:34:30.258Z,6.07
2024-04-18T12:36:02.429Z,5.80
2024-04-18T12:37:37.037Z,6.50
2024-04-18T12:39:09.072Z,6.17
2024-04-18T12:40:43.681Z,5.40
2024-04-18T12:42:19.578Z,4.80
2024-04-18T12:43:54.204Z,4.73
2024-04-18T12:45:26.176Z,5.07
2024-04-18T12:47:00.820Z,6.20
2024-04-18T12:48:32.954Z,3.70
2024-04-18T12:50:08.919Z,3.57
2024-04-18T12:51:41.088Z,4.67
2024-04-18T12:53:15.735Z,3.73
2024-04-18T12:54:48.140Z,3.90
2024-04-18T12:56:23.087Z,4.03
2024-04-18T12:57:57.691Z,4.30
2024-04-18T12:59:32.334Z,4.50
2024-04-18T13:01:04.619Z,4.47
2024-04-18T13:02:39.250Z,4.53
2024-04-18T13:04:11.373Z,4.70
2024-04-18T13:05:46.088Z,5.30
2024-04-18T13:07:18.024Z,6.53
2024-04-18T13:08:52.838Z,5.77
2024-04-18T13:10:24.851Z,4.13
2024-04-18T13:11:59.382Z,4.70
2024-04-18T13:13:33.947Z,3.90
2024-04-18T13:15:09.052Z,3.80
2024-04-18T13:16:41.180Z,3.73
2024-04-18T13:18:15.738Z,3.73
2024-04-18T13:19:48.514Z,4.03
2024-04-18T13:21:23.165Z,4.07
2024-04-18T13:22:55.987Z,4.40
2024-04-18T13:24:30.575Z,3.80
2024-04-18T13:26:03.970Z,4.07
2024-04-18T13:27:38.639Z,3.90
2024-04-18T13:29:13.194Z,4.10
2024-04-18T13:30:48.100Z,4.77
2024-04-18T13:32:20.112Z,4.70
2024-04-18T13:33:57.476Z,4.40
2024-04-18T13:35:30.504Z,5.60
2024-04-18T13:37:05.070Z,4.33
2024-04-18T13:38:36.988Z,4.60
2024-04-18T13:40:12.528Z,4.77
2024-04-18T13:41:45.952Z,3.97
2024-04-18T13:43:20.498Z,5.70
2024-04-18T13:44:55.474Z,4.33
2024-04-18T13:46:30.058Z,4.47
2024-04-18T13:48:02.701Z,4.53
2024-04-18T13:49:37.472Z,4.07
2024-04-18T13:51:09.452Z,3.93
2024-04-18T13:52:43.988Z,3.90
2024-04-18T13:54:15.962Z,3.20
2024-04-18T13:55:51.695Z,3.13
2024-04-18T13:57:23.885Z,2.90
2024-04-18T13:58:58.451Z,2.97
2024-04-18T14:00:33.114Z,3.20
2024-04-18T14:02:10.185Z,3.73
2024-04-18T14:03:42.142Z,2.90
2024-04-18T14:05:20.594Z,2.70
2024-04-18T14:06:52.633Z,3.90
2024-04-18T14:08:27.152Z,3.53
2024-04-18T14:09:59.146Z,3.10
2024-04-18T14:11:33.657Z,2.70
2024-04-18T14:13:05.644Z,2.80
2024-04-18T14:14:40.285Z,2.27
2024-04-18T14:16:33.474Z,3.00
2024-04-18T14:18:24.710Z,1.90
2024-04-18T14:19:59.944Z,2.97
2024-04-18T14:21:32.039Z,2.20
2024-04-18T14:23:06.973Z,2.07
2024-04-18T14:24:41.077Z,2.27
2024-04-18T14:26:15.694Z,2.47
2024-04-18T14:27:47.613Z,2.63
2024-04-18T14:29:22.124Z,2.77
2024-04-18T14:30:54.042Z,4.23
2024-04-18T14:32:31.242Z,2.43
2024-04-18T14:34:03.419Z,2.97
2024-04-18T14:35:37.959Z,2.50
2024-04-18T14:37:11.368Z,4.53
2024-04-18T14:38:45.897Z,2.60
2024-04-18T14:40:17.855Z,3.73
2024-04-18T14:41:52.422Z,2.33
2024-04-18T14:43:24.960Z,2.80
2024-04-18T14:44:59.474Z,2.93
2024-04-18T14:46:31.538Z,2.70
2024-04-18T14:48:09.610Z,2.93
2024-04-18T14:49:41.563Z,2.67
2024-04-18T14:51:16.154Z,2.60
2024-04-18T14:52:48.152Z,2.83
2024-04-18T14:54:24.363Z,4.70
2024-04-18T14:55:56.375Z,3.17
2024-04-18T14:57:31.064Z,2.40
2024-04-18T14:59:02.980Z,3.43
2024-04-18T15:00:37.536Z,1.77
2024-04-18T15:02:09.483Z,1.80
2024-04-18T15:03:46.851Z,3.17
2024-04-18T15:05:18.853Z,2.00
2024-04-18T15:06:53.361Z,1.50
2024-04-18T15:08:25.460Z,1.37
2024-04-18T15:09:59.961Z,1.43
2024-04-18T15:11:32.146Z,1.30
2024-04-18T15:13:07.331Z,1.10
2024-04-18T15:14:39.231Z,1.10
2024-04-18T15:16:13.791Z,1.07
2024-04-18T15:17:45.823Z,1.90
2024-04-18T15:19:22.986Z,1.10
2024-04-18T15:20:54.961Z,1.17
2024-04-18T15:22:29.490Z,1.07
2024-04-18T15:24:02.699Z,3.27
2024-04-18T15:25:37.561Z,0.90
2024-04-18T15:27:12.107Z,1.10
2024-04-18T15:28:44.246Z,1.17
2024-04-18T15:30:18.972Z,1.53
2024-04-18T15:31:50.971Z,1.53
2024-04-18T15:33:25.620Z,1.07
2024-04-18T15:35:00.262Z,2.03
2024-04-18T15:36:35.553Z,1.53
2024-04-18T15:38:07.486Z,1.10
2024-04-18T15:39:42.056Z,1.77
2024-04-18T15:41:14.042Z,1.20
2024-04-18T15:42:48.657Z,1.47
2024-04-18T15:44:20.629Z,1.40
2024-04-18T15:45:55.208Z,2.00
2024-04-18T15:47:27.829Z,2.93
2024-04-18T15:49:02.525Z,1.43
2024-04-18T15:50:37.165Z,2.87
2024-04-18T15:52:15.134Z,1.70
2024-04-18T15:53:47.182Z,1.77
2024-04-18T15:55:22.655Z,2.53
2024-04-18T15:56:54.829Z,3.60
2024-04-18T15:58:29.299Z,4.33
2024-04-18T16:00:01.399Z,2.70
2024-04-18T16:01:35.920Z,2.60
2024-04-18T16:03:07.928Z,3.20
2024-04-18T16:04:42.533Z,3.00
2024-04-18T16:06:17.118Z,3.23
2024-04-18T16:07:51.750Z,4.50
2024-04-18T16:09:24.313Z,3.97
2024-04-18T16:10:59.407Z,4.43
2024-04-18T16:12:31.455Z,2.90
2024-04-18T16:14:06.183Z,3.23
2024-04-18T16:15:38.123Z,3.07
2024-04-18T16:17:12.805Z,3.37
2024-04-18T16:18:44.804Z,3.47
2024-04-18T16:20:21.515Z,3.93
2024-04-18T16:21:56.071Z,3.27
2024-04-18T16:23:30.677Z,6.27
2024-04-18T16:25:02.592Z,3.07
2024-04-18T16:26:38.657Z,5.13
2024-04-18T16:28:10.977Z,4.33
2024-04-18T16:29:45.750Z,6.33
2024-04-18T16:31:17.797Z,2.70
2024-04-18T16:32:55.039Z,3.40
2024-04-18T16:34:27.026Z,3.67
2024-04-18T16:36:01.577Z,3.63
2024-04-18T16:37:40.454Z,3.03
2024-04-18T16:39:15.284Z,3.03
2024-04-18T16:40:48.237Z,4.17
2024-04-18T16:42:24.857Z,2.57
2024-04-18T16:43:57.933Z,2.97
2024-04-18T16:45:32.920Z,4.73
2024-04-18T16:47:05.429Z,3.70
2024-04-18T16:48:40.344Z,3.37
2024-04-18T16:50:13.485Z,3.63
2024-04-18T16:51:49.548Z,2.07
2024-04-18T16:53:25.699Z,2.87
2024-04-18T16:55:00.234Z,3.87
2024-04-18T16:56:32.193Z,2.47
2024-04-18T16:58:07.017Z,2.07
2024-04-18T16:59:39.187Z,3.93
2024-04-18T17:01:13.728Z,3.17
2024-04-18T17:02:46.469Z,2.23
2024-04-18T17:04:21.116Z,3.60
2024-04-18T17:05:59.937Z,1.90
2024-04-18T17:07:34.668Z,2.77
2024-04-18T17:09:09.229Z,3.63
2024-04-18T17:10:43.768Z,2.50
2024-04-18T17:12:15.838Z,1.63
2024-04-18T17:13:54.681Z,2.63
2024-04-18T17:15:28.117Z,3.23
2024-04-18T17:17:02.724Z,2.73
2024-04-18T17:18:35.229Z,3.73
2024-04-18T17:20:12.085Z,2.70
2024-04-18T17:21:46.148Z,2.87
2024-04-18T17:23:20.720Z,3.73
2024-04-18T17:24:55.225Z,2.10
2024-04-18T17:26:30.208Z,3.43
2024-04-18T17:28:02.160Z,3.30
2024-04-18T17:29:37.412Z,3.97
2024-04-18T17:31:09.400Z,2.47
2024-04-18T17:32:45.872Z,2.57
2024-04-18T17:34:20.508Z,1.50
2024-04-18T17:35:53.546Z,4.00
2024-04-18T17:37:28.076Z,5.97
2024-04-18T17:39:00.065Z,3.30
2024-04-18T17:40:37.179Z,2.43
2024-04-18T17:42:09.125Z,3.03
2024-04-18T17:43:43.827Z,3.17
2024-04-18T17:45:15.895Z,3.27
2024-04-18T17:46:50.430Z,2.87
2024-04-18T17:48:23.624Z,3.37
2024-04-18T17:49:58.345Z,2.37
2024-04-18T17:51:30.801Z,2.10
2024-04-18T17:53:05.299Z,5.00
2024-04-18T17:54:37.484Z,2.57
2024-04-18T17:56:15.256Z,2.77
2024-04-18T17:57:47.307Z,2.00
2024-04-18T17:59:22.163Z,1.90
2024-04-18T18:00:54.212Z,1.90
2024-04-18T18:02:29.281Z,2.73
2024-04-18T18:04:01.335Z,2.40
2024-04-18T18:05:35.956Z,1.50
2024-04-18T18:07:07.896Z,1.60
2024-04-18T18:08:42.412Z,2.57
2024-04-18T18:10:14.557Z,2.80
2024-04-18T18:11:51.944Z,1.67
2024-04-18T18:13:23.968Z,1.93
2024-04-18T18:14:59.700Z,2.33
2024-04-18T18:16:32.095Z,1.80
2024-04-18T18:18:07.752Z,2.03
2024-04-18T18:19:40.005Z,2.73
2024-04-18T18:21:14.654Z,2.33
2024-04-18T18:22:46.665Z,3.00
2024-04-18T18:24:21.180Z,1.37
2024-04-18T18:25:53.124Z,2.77
2024-04-18T18:27:30.296Z,2.07
2024-04-18T18:29:02.241Z,2.00
2024-04-18T18:30:34.333Z,3.20
2024-04-18T18:32:14.360Z,1.73
2024-04-18T18:33:47.499Z,3.07
2024-04-18T18:35:22.084Z,1.90
2024-04-18T18:36:54.072Z,1.23
2024-04-18T18:38:28.573Z,3.07
2024-04-18T18:40:00.526Z,2.83
2024-04-18T18:41:32.508Z,2.30
2024-04-18T18:43:09.726Z,1.43
2024-04-18T18:44:41.634Z,2.10
2024-04-18T18:46:13.938Z,1.30
2024-04-18T18:47:48.567Z,2.90
2024-04-18T18:49:20.779Z,1.50
2024-04-18T18:50:55.348Z,2.60
2024-04-18T18:52:28.083Z,2.57
2024-04-18T18:54:00.066Z,2.30
2024-04-18T18:55:36.649Z,1.53
2024-04-18T18:57:08.795Z,2.17
2024-04-18T18:58:46.032Z,2.80
2024-04-18T19:00:18.418Z,2.17
2024-04-18T19:01:50.461Z,2.63
2024-04-18T19:03:25.024Z,1.47
2024-04-18T19:04:57.109Z,1.57
2024-04-18T19:06:32.008Z,1.17
2024-04-18T19:08:04.301Z,1.50
2024-04-18T19:09:39.303Z,2.50
2024-04-18T19:11:13.896Z,2.77
2024-04-18T19:12:45.940Z,2.40
2024-04-18T19:14:20.958Z,2.10
2024-04-18T19:15:59.205Z,2.40
2024-04-18T19:17:31.902Z,4.80
2024-04-18T19:19:06.957Z,2.50
2024-04-18T19:20:38.965Z,2.50
2024-04-18T19:22:10.868Z,1.80
2024-04-18T19:23:48.894Z,2.50
2024-04-18T19:25:20.916Z,2.17
2024-04-18T19:26:52.864Z,4.10
2024-04-18T19:28:27.363Z,2.17
2024-04-18T19:30:02.842Z,2.40
2024-04-18T19:31:34.760Z,2.33
2024-04-18T19:33:09.445Z,1.70
2024-04-18T19:34:41.497Z,2.60
2024-04-18T19:36:13.516Z,2.17
2024-04-18T19:37:48.030Z,2.73
2024-04-18T19:39:23.352Z,2.10
2024-04-18T19:40:55.265Z,1.52
2024-04-18T19:42:30.888Z,2.17
2024-04-18T19:44:02.942Z,2.28
2024-04-18T19:45:37.525Z,1.50
2024-04-18T19:47:12.306Z,2.73
2024-04-18T19:48:44.360Z,2.40
2024-04-18T19:50:16.493Z,3.30
2024-04-18T19:51:51.084Z,5.40
2024-04-18T19:53:24.100Z,1.98
2024-04-18T19:54:58.596Z,4.38
2024-04-18T19:56:30.556Z,2.15
2024-04-18T19:58:02.467Z,3.28
2024-04-18T19:59:39.165Z,3.30
2024-04-18T20:01:13.741Z,1.55
2024-04-18T20:02:45.710Z,2.17
2024-04-18T20:04:20.734Z,2.38
2024-04-18T20:05:52.749Z,2.67
2024-04-18T20:07:27.278Z,1.40
2024-04-18T20:09:00.371Z,2.75
2024-04-18T20:10:35.575Z,3.70
2024-04-18T20:12:08.166Z,2.97
2024-04-18T20:13:40.224Z,2.67
2024-04-18T20:15:14.895Z,3.08
2024-04-18T20:16:49.525Z,2.13
2024-04-18T20:18:24.143Z,1.40
2024-04-18T20:19:56.095Z,4.78
2024-04-18T20:21:28.075Z,2.50
2024-04-18T20:23:03.831Z,2.05
2024-04-18T20:24:35.929Z,2.05
2024-04-18T20:26:10.461Z,1.83
2024-04-18T20:27:42.420Z,3.17
2024-04-18T20:29:16.832Z,1.90
2024-04-18T20:30:51.459Z,2.58
2024-04-18T20:32:27.204Z,2.13
2024-04-18T20:34:03.666Z,3.13
2024-04-18T20:35:38.302Z,3.35
2024-04-18T20:37:10.259Z,3.58
2024-04-18T20:38:42.187Z,4.00
2024-04-18T20:40:16.780Z,1.95
2024-04-18T20:41:48.784Z,1.98
2024-04-18T20:43:20.734Z,2.13
2024-04-18T20:44:55.228Z,1.70